createdAt,value
2018-03-04T00:01:42.584Z,97.67
2018-03-04T00:04:11.976Z,100.93
2018-03-04T00:06:41.539Z,101.90
2018-03-04T00:09:10.812Z,106.50
2018-03-04T00:11:40.044Z,98.97
2018-03-04T00:14:09.801Z,104.80
2018-03-04T00:16:39.103Z,106.10
2018-03-04T00:19:08.351Z,98.53
2018-03-04T00:21:38.156Z,102.90
2018-03-04T00:24:07.468Z,94.30
2018-03-04T00:26:37.750Z,93.57
2018-03-04T00:29:07.518Z,92.87
2018-03-04T00:31:36.768Z,95.00
2018-03-04T00:34:06.041Z,88.63
2018-03-04T00:36:35.753Z,93.13
2018-03-04T00:39:06.002Z,92.30
2018-03-04T00:41:35.327Z,95.00
2018-03-04T00:44:06.126Z,90.70
2018-03-04T00:46:35.374Z,87.13
2018-03-04T00:49:05.106Z,89.30
2018-03-04T00:51:34.658Z,92.63
2018-03-04T00:54:04.689Z,87.23
2018-03-04T00:56:34.209Z,83.90
2018-03-04T00:59:04.226Z,90.67
2018-03-04T01:01:33.582Z,89.90
2018-03-04T01:04:03.546Z,93.70
2018-03-04T01:06:33.196Z,88.60
2018-03-04T01:09:02.491Z,90.93
2018-03-04T01:11:31.737Z,86.23
2018-03-04T01:14:01.548Z,87.93
2018-03-04T01:16:30.857Z,87.37
2018-03-04T01:19:00.168Z,91.87
2018-03-04T01:21:29.838Z,85.03
2018-03-04T01:23:59.608Z,88.00
2018-03-04T01:26:28.908Z,85.03
2018-03-04T01:28:58.592Z,89.53
2018-03-04T01:31:28.906Z,85.10
2018-03-04T01:33:58.181Z,87.37
2018-03-04T01:36:27.951Z,85.40
2018-03-04T01:38:57.216Z,88.47
2018-03-04T01:41:27.790Z,85.77
2018-03-04T01:44:01.532Z,85.90
2018-03-04T01:46:31.896Z,81.57
2018-03-04T01:49:01.402Z,84.37
2018-03-04T01:51:39.383Z,83.60
2018-03-04T01:54:09.386Z,89.87
2018-03-04T01:56:39.342Z,87.10
2018-03-04T01:59:08.674Z,81.63
2018-03-04T02:01:38.276Z,86.60
2018-03-04T02:04:07.562Z,88.77
2018-03-04T02:06:36.787Z,84.00
2018-03-04T02:09:07.053Z,89.37
2018-03-04T02:11:36.287Z,91.67
2018-03-04T02:14:08.361Z,88.10
2018-03-04T02:16:38.610Z,86.03
2018-03-04T02:19:07.849Z,85.47
2018-03-04T02:21:40.222Z,90.93
2018-03-04T02:24:11.101Z,91.83
2018-03-04T02:26:40.366Z,91.27
2018-03-04T02:29:09.647Z,92.57
2018-03-04T02:31:39.324Z,90.47
2018-03-04T02:34:08.869Z,93.87
2018-03-04T02:36:38.098Z,92.60
2018-03-04T02:39:07.741Z,93.80
2018-03-04T02:41:37.037Z,86.20
2018-03-04T02:44:06.284Z,90.97
2018-03-04T02:46:36.985Z,93.70
2018-03-04T02:49:06.226Z,90.20
2018-03-04T02:51:35.467Z,90.47
2018-03-04T02:54:05.909Z,91.00
2018-03-04T02:56:35.203Z,94.30
2018-03-04T02:59:04.630Z,89.93
2018-03-04T03:01:34.293Z,89.00
2018-03-04T03:04:04.560Z,94.23
2018-03-04T03:06:33.857Z,88.30
2018-03-04T03:09:04.830Z,92.77
2018-03-04T03:11:34.092Z,91.13
2018-03-04T03:14:04.917Z,88.07
2018-03-04T03:16:34.797Z,91.23
2018-03-04T03:19:04.215Z,87.50
2018-03-04T03:21:33.469Z,87.87
2018-03-04T03:24:03.837Z,88.50
2018-03-04T03:26:33.116Z,88.80
2018-03-04T03:29:02.445Z,85.67
2018-03-04T03:31:32.764Z,91.10
2018-03-04T03:34:03.466Z,85.20
2018-03-04T03:36:32.927Z,82.53
2018-03-04T03:39:03.196Z,86.83
2018-03-04T03:41:34.133Z,82.73
2018-03-04T03:44:04.930Z,81.57
2018-03-04T03:46:34.800Z,87.83
2018-03-04T03:49:04.521Z,86.90
2018-03-04T03:51:34.226Z,81.40
2018-03-04T03:54:04.551Z,83.77
2018-03-04T03:56:33.847Z,79.77
2018-03-04T03:59:03.463Z,82.50
2018-03-04T04:01:38.314Z,79.40
2018-03-04T04:04:07.564Z,79.57
2018-03-04T04:06:36.849Z,83.67
2018-03-04T04:09:07.054Z,81.97
2018-03-04T04:11:36.345Z,79.00
2018-03-04T04:14:05.762Z,77.47
2018-03-04T04:16:35.484Z,80.63
2018-03-04T04:19:05.437Z,77.07
2018-03-04T04:21:34.856Z,76.90
2018-03-04T04:24:05.307Z,76.67
2018-03-04T04:26:34.797Z,77.60
2018-03-04T04:29:04.022Z,76.77
2018-03-04T04:31:33.849Z,80.77
2018-03-04T04:34:05.687Z,81.00
2018-03-04T04:36:34.896Z,80.50
2018-03-04T04:39:04.436Z,78.30
2018-03-04T04:41:33.808Z,75.90
2018-03-04T04:44:05.656Z,76.20
2018-03-04T04:46:34.875Z,75.57
2018-03-04T04:49:04.146Z,75.87
2018-03-04T04:51:33.982Z,78.63
2018-03-04T04:54:04.378Z,81.13
2018-03-04T04:56:33.727Z,74.87
2018-03-04T04:59:03.821Z,77.70
2018-03-04T05:01:33.106Z,76.93
2018-03-04T05:04:04.020Z,75.63
2018-03-04T05:06:33.275Z,76.47
2018-03-04T05:09:02.643Z,77.17
2018-03-04T05:11:32.252Z,78.30
2018-03-04T05:14:02.621Z,82.27
2018-03-04T05:16:31.828Z,74.80
2018-03-04T05:19:02.347Z,76.57
2018-03-04T05:21:31.740Z,76.30
2018-03-04T05:24:01.592Z,74.90
2018-03-04T05:26:31.327Z,77.30
2018-03-04T05:29:01.388Z,79.13
2018-03-04T05:31:31.761Z,75.47
2018-03-04T05:34:02.350Z,77.83
2018-03-04T05:36:31.579Z,79.37
2018-03-04T05:39:00.824Z,83.27
2018-03-04T05:41:30.496Z,77.93
2018-03-04T05:43:59.717Z,77.63
2018-03-04T05:46:28.991Z,81.77
2018-03-04T05:51:30.229Z,80.77
2018-03-04T05:53:59.529Z,83.00
2018-03-04T05:56:29.334Z,81.90
2018-03-04T05:58:58.629Z,82.10
2018-03-04T06:01:27.963Z,82.80
2018-03-04T06:03:57.954Z,80.43
2018-03-04T06:06:27.155Z,77.87
2018-03-04T06:08:56.528Z,80.90
2018-03-04T06:11:25.862Z,81.40
2018-03-04T06:13:55.985Z,78.33
2018-03-04T06:16:25.320Z,81.87
2018-03-04T06:18:54.622Z,84.00
2018-03-04T06:21:24.468Z,86.00
2018-03-04T06:23:53.817Z,80.80
2018-03-04T06:26:23.059Z,82.37
2018-03-04T06:28:53.002Z,80.50
2018-03-04T06:31:22.375Z,79.03
2018-03-04T06:33:51.641Z,82.50
2018-03-04T06:36:21.675Z,79.27
2018-03-04T06:38:50.941Z,82.97
2018-03-04T06:41:20.215Z,78.43
2018-03-04T06:43:50.022Z,79.00
2018-03-04T06:46:19.246Z,84.23
2018-03-04T06:48:48.465Z,85.23
2018-03-04T06:51:18.388Z,83.73
2018-03-04T06:53:47.663Z,84.33
2018-03-04T06:56:16.878Z,85.30
2018-03-04T06:58:46.841Z,82.60
2018-03-04T07:01:16.165Z,86.20
2018-03-04T07:03:45.577Z,91.33
2018-03-04T07:06:16.304Z,88.37
2018-03-04T07:08:45.623Z,83.90
2018-03-04T07:11:14.866Z,80.80
2018-03-04T07:13:47.946Z,82.07
2018-03-04T07:16:17.558Z,83.60
2018-03-04T07:18:46.781Z,86.57
2018-03-04T07:21:16.406Z,83.27
2018-03-04T07:23:45.622Z,84.57
2018-03-04T07:26:14.921Z,82.17
2018-03-04T07:28:44.701Z,87.07
2018-03-04T07:31:14.225Z,83.97
2018-03-04T07:33:43.457Z,81.80
2018-03-04T07:36:12.984Z,80.93
2018-03-04T07:38:42.342Z,79.27
2018-03-04T07:41:11.575Z,75.53
2018-03-04T07:43:41.248Z,74.10
2018-03-04T07:46:10.577Z,75.40
2018-03-04T07:48:39.820Z,75.30
2018-03-04T07:51:09.692Z,73.57
2018-03-04T07:53:38.908Z,77.00
2018-03-04T07:56:08.262Z,77.67
2018-03-04T07:58:37.905Z,75.17
2018-03-04T08:01:07.115Z,74.90
2018-03-04T08:03:36.342Z,70.63
2018-03-04T08:06:06.109Z,74.53
2018-03-04T08:08:35.321Z,71.67
2018-03-04T08:11:04.671Z,71.20
2018-03-04T08:13:34.319Z,67.67
2018-03-04T08:16:04.389Z,71.27
2018-03-04T08:18:33.630Z,72.70
2018-03-04T08:21:02.935Z,72.87
2018-03-04T08:23:32.195Z,72.70
2018-03-04T08:28:42.212Z,70.60
2018-03-04T08:31:11.445Z,75.87
2018-03-04T08:33:40.968Z,71.57
2018-03-04T08:36:10.196Z,69.50
2018-03-04T08:38:39.415Z,71.97
2018-03-04T08:41:09.086Z,70.60
2018-03-04T08:43:38.320Z,71.17
2018-03-04T08:46:07.894Z,69.97
2018-03-04T08:48:37.562Z,200.77
2018-03-04T08:51:06.843Z,66.53
2018-03-04T08:53:36.123Z,65.57
2018-03-04T08:56:06.997Z,68.47
2018-03-04T08:58:36.215Z,69.17
2018-03-04T09:01:05.770Z,65.20
2018-03-04T09:03:35.498Z,65.60
2018-03-04T09:06:05.286Z,64.00
2018-03-04T09:08:34.509Z,62.83
2018-03-04T09:11:04.654Z,62.30
2018-03-04T09:13:33.871Z,60.87
2018-03-04T09:16:03.948Z,64.63
2018-03-04T09:18:33.744Z,61.77
2018-03-04T09:21:03.571Z,59.10
2018-03-04T09:23:32.884Z,61.97
2018-03-04T09:26:04.601Z,65.13
2018-03-04T09:28:33.831Z,63.37
2018-03-04T09:31:03.419Z,62.20
2018-03-04T09:33:33.042Z,61.40
2018-03-04T09:36:03.290Z,61.03
2018-03-04T09:38:32.568Z,69.33
2018-03-04T09:41:03.764Z,63.83
2018-03-04T09:43:33.489Z,57.67
2018-03-04T09:46:04.750Z,61.47
2018-03-04T09:48:34.559Z,75.67
2018-03-04T09:51:04.315Z,76.90
2018-03-04T09:53:33.641Z,79.33
2018-03-04T09:56:04.128Z,84.37
2018-03-04T09:58:33.362Z,82.27
2018-03-04T10:01:02.940Z,78.50
2018-03-04T10:03:32.412Z,75.83
2018-03-04T10:06:03.404Z,76.93
2018-03-04T10:08:33.694Z,76.90
2018-03-04T10:11:03.448Z,78.30
2018-03-04T10:13:32.709Z,68.73
2018-03-04T10:16:03.405Z,76.10
2018-03-04T10:18:32.650Z,74.67
2018-03-04T10:21:02.227Z,72.90
2018-03-04T10:23:31.917Z,71.93
2018-03-04T10:26:01.624Z,67.50
2018-03-04T10:28:30.886Z,72.67
2018-03-04T10:31:00.902Z,72.30
2018-03-04T10:33:30.155Z,74.07
2018-03-04T10:35:59.404Z,72.40
2018-03-04T10:38:29.173Z,73.13
2018-03-04T10:40:58.800Z,75.20
2018-03-04T10:43:28.009Z,74.63
2018-03-04T10:45:57.923Z,75.30
2018-03-04T10:48:27.436Z,76.87
2018-03-04T10:50:56.911Z,75.33
2018-03-04T10:53:26.948Z,76.63
2018-03-04T10:55:56.405Z,76.37
2018-03-04T10:58:26.181Z,71.20
2018-03-04T11:00:57.800Z,70.97
2018-03-04T11:03:27.118Z,76.90
2018-03-04T11:05:59.789Z,75.57
2018-03-04T11:08:30.022Z,76.17
2018-03-04T11:10:59.475Z,75.80
2018-03-04T11:13:28.797Z,75.30
2018-03-04T11:16:00.405Z,74.33
2018-03-04T11:18:32.525Z,75.03
2018-03-04T11:21:05.270Z,73.17
2018-03-04T11:23:35.985Z,71.20
2018-03-04T11:26:07.916Z,74.70
2018-03-04T11:28:37.611Z,73.73
2018-03-04T11:31:07.566Z,75.70
2018-03-04T11:33:40.124Z,78.50
2018-03-04T11:36:11.037Z,76.23
2018-03-04T11:38:40.510Z,78.10
2018-03-04T11:41:10.017Z,75.53
2018-03-04T11:43:40.141Z,79.50
2018-03-04T11:46:10.325Z,77.10
2018-03-04T11:48:40.159Z,70.63
2018-03-04T11:51:11.016Z,71.17
2018-03-04T11:53:41.106Z,76.47
2018-03-04T11:56:10.997Z,68.33
2018-03-04T11:58:40.847Z,71.70
2018-03-04T12:01:10.644Z,69.17
2018-03-04T12:03:40.234Z,71.47
2018-03-04T12:06:09.587Z,70.83
2018-03-04T12:08:39.286Z,69.33
2018-03-04T12:11:08.598Z,68.80
2018-03-04T12:13:38.006Z,69.63
2018-03-04T12:16:08.050Z,68.73
2018-03-04T12:18:37.405Z,70.43
2018-03-04T12:21:07.027Z,67.83
2018-03-04T12:23:37.684Z,64.83
2018-03-04T12:26:10.099Z,68.87
2018-03-04T12:28:39.640Z,69.00
2018-03-04T12:31:09.754Z,68.03
2018-03-04T12:33:39.522Z,67.83
2018-03-04T12:36:08.773Z,64.20
2018-03-04T12:38:38.167Z,72.97
2018-03-04T12:43:48.005Z,64.87
2018-03-04T12:46:17.628Z,65.20
2018-03-04T12:48:47.258Z,62.50
2018-03-04T12:51:16.575Z,61.60
2018-03-04T12:53:45.923Z,64.13
2018-03-04T12:56:15.232Z,62.10
2018-03-04T12:58:44.606Z,61.10
2018-03-04T13:01:14.469Z,60.73
2018-03-04T13:03:43.774Z,64.13
2018-03-04T13:06:13.064Z,59.83
2018-03-04T13:08:42.896Z,63.23
2018-03-04T13:11:12.113Z,65.07
2018-03-04T13:13:41.637Z,63.23
2018-03-04T13:16:11.426Z,63.00
2018-03-04T13:18:41.006Z,63.10
2018-03-04T13:21:10.291Z,63.10
2018-03-04T13:23:39.724Z,62.63
2018-03-04T13:26:09.091Z,76.23
2018-03-04T13:28:38.930Z,60.57
2018-03-04T13:31:08.424Z,63.83
2018-03-04T13:33:37.789Z,59.67
2018-03-04T13:36:07.617Z,60.83
2018-03-04T13:38:36.864Z,62.07
2018-03-04T13:41:06.388Z,60.10
2018-03-04T13:43:36.040Z,60.83
2018-03-04T13:46:06.700Z,61.77
2018-03-04T13:48:35.976Z,62.73
2018-03-04T13:51:06.323Z,62.57
2018-03-04T13:53:35.698Z,59.87
2018-03-04T13:56:06.533Z,62.57
2018-03-04T13:58:38.014Z,61.70
2018-03-04T14:01:08.332Z,64.50
2018-03-04T14:03:39.388Z,63.60
2018-03-04T14:06:11.150Z,63.03
2018-03-04T14:08:41.607Z,59.30
2018-03-04T14:11:11.399Z,59.37
2018-03-04T14:13:40.754Z,63.33
2018-03-04T14:16:10.057Z,64.97
2018-03-04T14:18:40.661Z,67.63
2018-03-04T14:21:09.940Z,68.20
2018-03-04T14:23:39.204Z,69.63
2018-03-04T14:26:09.538Z,71.00
2018-03-04T14:28:38.821Z,73.37
2018-03-04T14:31:08.169Z,75.33
2018-03-04T14:33:37.842Z,74.73
2018-03-04T14:36:07.114Z,77.70
2018-03-04T14:38:36.388Z,77.50
2018-03-04T14:41:07.010Z,76.63
2018-03-04T14:43:36.345Z,71.80
2018-03-04T14:46:06.484Z,77.87
2018-03-04T14:48:35.766Z,74.93
2018-03-04T14:51:05.670Z,74.53
2018-03-04T14:53:35.299Z,77.50
2018-03-04T14:56:05.599Z,74.60
2018-03-04T14:58:34.891Z,76.67
2018-03-04T15:01:05.708Z,73.30
2018-03-04T15:03:35.004Z,75.07
2018-03-04T15:06:04.872Z,74.27
2018-03-04T15:08:34.487Z,73.90
2018-03-04T15:11:03.852Z,76.90
2018-03-04T15:13:33.109Z,73.00
2018-03-04T15:16:03.263Z,75.87
2018-03-04T15:18:32.546Z,73.37
2018-03-04T15:21:02.582Z,76.70
2018-03-04T15:23:32.395Z,77.80
2018-03-04T15:26:02.249Z,79.43
2018-03-04T15:28:31.638Z,74.10
2018-03-04T15:31:01.118Z,76.17
2018-03-04T15:33:30.503Z,71.20
2018-03-04T15:36:07.284Z,474.97
2018-03-04T15:38:42.263Z,94.53
2018-03-04T15:41:12.208Z,77.37
2018-03-04T15:43:41.802Z,79.77
2018-03-04T15:46:11.308Z,75.40
2018-03-04T15:48:40.874Z,77.10
2018-03-04T15:51:10.184Z,76.30
2018-03-04T15:53:39.601Z,75.83
2018-03-04T15:56:09.467Z,78.10
2018-03-04T15:58:39.367Z,75.70
2018-03-04T16:01:09.613Z,78.17
2018-03-04T16:03:39.243Z,74.10
2018-03-04T16:06:08.934Z,77.80
2018-03-04T16:08:38.259Z,70.73
2018-03-04T16:11:07.793Z,73.27
2018-03-04T16:13:37.104Z,72.47
2018-03-04T16:16:07.553Z,72.70
2018-03-04T16:18:37.268Z,79.67
2018-03-04T16:21:06.625Z,74.57
2018-03-04T16:23:36.028Z,74.87
2018-03-04T16:26:07.580Z,70.67
2018-03-04T16:28:37.067Z,74.20
2018-03-04T16:31:06.490Z,66.47
2018-03-04T16:33:36.153Z,59.97
2018-03-04T16:36:06.576Z,66.13
2018-03-04T16:38:35.965Z,37.57
2018-03-04T16:41:05.422Z,24.30
2018-03-04T16:43:34.905Z,27.53
2018-03-04T16:46:05.810Z,19.70
2018-03-04T16:48:35.237Z,20.73
2018-03-04T16:51:04.935Z,24.70
2018-03-04T16:53:34.685Z,20.33
2018-03-04T16:56:05.538Z,22.07
2018-03-04T16:58:34.933Z,25.47
2018-03-04T17:01:05.067Z,19.50
2018-03-04T17:03:34.681Z,19.20
2018-03-04T17:06:05.287Z,10.97
2018-03-04T17:08:35.047Z,23.13
2018-03-04T17:11:04.630Z,17.77
2018-03-04T17:13:33.904Z,14.57
2018-03-04T17:16:04.597Z,9.87
2018-03-04T17:18:33.859Z,10.73
2018-03-04T17:21:03.707Z,15.60
2018-03-04T17:23:33.130Z,15.73
2018-03-04T17:26:04.180Z,13.20
2018-03-04T17:28:33.728Z,29.13
2018-03-04T17:31:03.091Z,11.17
2018-03-04T17:33:32.476Z,9.97
2018-03-04T17:36:03.499Z,9.67
2018-03-04T17:38:32.762Z,9.67
2018-03-04T17:41:02.183Z,14.13
2018-03-04T17:43:31.925Z,11.17
2018-03-04T17:46:01.779Z,13.83
2018-03-04T17:48:31.059Z,11.67
2018-03-04T17:51:01.092Z,17.67
2018-03-04T17:53:30.463Z,15.93
2018-03-04T17:55:59.766Z,11.60
2018-03-04T17:58:29.765Z,13.17
2018-03-04T18:01:01.298Z,12.63
2018-03-04T18:03:30.649Z,10.53
2018-03-04T18:05:59.965Z,12.37
2018-03-04T18:08:29.395Z,16.87
2018-03-04T18:10:59.369Z,12.87
2018-03-04T18:13:28.802Z,8.97
2018-03-04T18:15:58.338Z,8.60
2018-03-04T18:18:28.003Z,9.70
2018-03-04T18:20:57.397Z,10.10
2018-03-04T18:23:26.701Z,9.20
2018-03-04T18:25:57.487Z,9.23
2018-03-04T18:28:26.782Z,8.37
2018-03-04T18:30:56.259Z,10.30
2018-03-04T18:33:25.571Z,10.23
2018-03-04T18:35:54.974Z,10.13
2018-03-04T18:38:24.234Z,13.07
2018-03-04T18:40:54.170Z,14.63
2018-03-04T18:43:23.592Z,17.70
2018-03-04T18:45:53.014Z,21.30
2018-03-04T18:48:22.365Z,26.37
2018-03-04T18:50:51.689Z,15.90
2018-03-04T18:53:21.466Z,13.80
2018-03-04T18:55:50.932Z,12.40
2018-03-04T18:58:20.739Z,11.40
2018-03-04T19:00:50.702Z,10.37
2018-03-04T19:03:20.077Z,9.37
2018-03-04T19:05:49.370Z,8.70
2018-03-04T19:08:19.153Z,8.87
2018-03-04T19:10:48.607Z,8.97
2018-03-04T19:13:17.975Z,9.27
2018-03-04T19:15:47.321Z,9.60
2018-03-04T19:18:16.640Z,10.50
2018-03-04T19:20:46.379Z,10.60
2018-03-04T19:23:15.697Z,10.23
2018-03-04T19:25:45.286Z,11.23
2018-03-04T19:28:15.293Z,9.73
2018-03-04T19:30:44.838Z,10.93
2018-03-04T19:33:14.523Z,11.90
2018-03-04T19:35:46.320Z,11.40
2018-03-04T19:38:15.582Z,11.33
2018-03-04T19:40:44.974Z,12.83
2018-03-04T19:43:15.713Z,12.30
2018-03-04T19:45:45.416Z,13.17
2018-03-04T19:48:14.914Z,13.60
2018-03-04T19:50:44.732Z,14.00
2018-03-04T19:53:14.633Z,14.50
2018-03-04T19:55:44.113Z,15.97
2018-03-04T19:58:13.528Z,16.07
2018-03-04T20:00:45.407Z,15.70
2018-03-04T20:03:19.763Z,16.80
2018-03-04T20:05:49.422Z,17.80
2018-03-04T20:08:18.776Z,16.53
2018-03-04T20:10:48.008Z,15.97
2018-03-04T20:15:50.997Z,17.10
2018-03-04T20:18:20.343Z,18.57
2018-03-04T20:20:49.692Z,19.17
2018-03-04T20:23:19.373Z,18.53
2018-03-04T20:25:49.274Z,19.50
2018-03-04T20:28:18.700Z,17.90
2018-03-04T20:30:48.426Z,18.33
2018-03-04T20:33:17.787Z,17.97
2018-03-04T20:35:47.137Z,16.63
2018-03-04T20:38:16.790Z,17.43
2018-03-04T20:40:46.401Z,17.37
2018-03-04T20:43:15.715Z,17.97
2018-03-04T20:45:45.440Z,17.70
2018-03-04T20:48:15.178Z,18.40
2018-03-04T20:50:46.144Z,17.33
2018-03-04T20:53:15.988Z,18.17
2018-03-04T20:55:45.327Z,18.13
2018-03-04T20:58:14.813Z,19.33
2018-03-04T21:00:44.579Z,18.93
2018-03-04T21:03:13.865Z,18.53
2018-03-04T21:05:43.258Z,18.03
2018-03-04T21:08:13.035Z,17.17
2018-03-04T21:10:42.327Z,18.20
2018-03-04T21:13:11.600Z,19.40
2018-03-04T21:15:42.284Z,18.40
2018-03-04T21:18:11.727Z,20.07
2018-03-04T21:20:41.008Z,20.47
2018-03-04T21:23:10.701Z,23.17
2018-03-04T21:25:39.946Z,23.97
2018-03-04T21:28:09.255Z,24.47
2018-03-04T21:30:38.899Z,26.27
2018-03-04T21:33:08.327Z,25.07
2018-03-04T21:35:37.562Z,26.70
2018-03-04T21:38:07.246Z,26.73
2018-03-04T21:40:36.519Z,28.37
2018-03-04T21:43:06.258Z,30.77
2018-03-04T21:45:35.521Z,32.23
2018-03-04T21:48:05.794Z,31.93
2018-03-04T21:50:35.373Z,30.77
2018-03-04T21:53:04.641Z,33.93
2018-03-04T21:55:33.867Z,35.00
2018-03-04T21:58:07.023Z,37.30
2018-03-04T22:00:36.943Z,38.57
2018-03-04T22:03:06.378Z,40.40
2018-03-04T22:05:36.136Z,43.70
2018-03-04T22:08:06.484Z,46.17
2018-03-04T22:10:35.820Z,44.57
2018-03-04T22:13:07.364Z,46.10
2018-03-04T22:15:36.888Z,48.13
2018-03-04T22:18:06.843Z,47.40
2018-03-04T22:20:36.199Z,48.87
2018-03-04T22:23:08.568Z,48.80
2018-03-04T22:25:44.919Z,47.57
2018-03-04T22:28:18.193Z,47.70
2018-03-04T22:30:47.712Z,45.33
2018-03-04T22:33:17.081Z,46.80
2018-03-04T22:35:49.450Z,63.43
2018-03-04T22:38:19.221Z,45.10
2018-03-04T22:40:48.634Z,42.97
2018-03-04T22:43:19.360Z,44.80
2018-03-04T22:45:50.215Z,47.13
2018-03-04T22:48:21.077Z,45.07
2018-03-04T22:50:50.796Z,45.10
2018-03-04T22:53:21.352Z,48.07
2018-03-04T22:55:50.751Z,44.10
2018-03-04T22:58:20.039Z,43.93
2018-03-04T23:00:49.959Z,40.93
2018-03-04T23:03:19.216Z,40.03
2018-03-04T23:05:48.434Z,38.27
2018-03-04T23:08:18.106Z,41.70
2018-03-04T23:10:47.314Z,44.73
2018-03-04T23:13:17.082Z,40.70
2018-03-04T23:15:46.724Z,43.50
2018-03-04T23:18:15.943Z,43.60
2018-03-04T23:20:45.883Z,43.17
2018-03-04T23:23:16.674Z,45.77
2018-03-04T23:27:15.494Z,43.63
2018-03-04T23:29:45.126Z,42.87
2018-03-04T23:32:14.550Z,45.67
2018-03-04T23:34:43.780Z,46.70
2018-03-04T23:37:13.469Z,44.27
2018-03-04T23:39:42.701Z,46.50
2018-03-04T23:42:12.303Z,45.10
2018-03-04T23:44:41.521Z,48.43
2018-03-04T23:47:10.791Z,46.20
2018-03-04T23:49:40.422Z,47.63
2018-03-04T23:52:09.679Z,45.00
2018-03-04T23:54:39.026Z,45.70
2018-03-04T23:57:09.744Z,49.00
2018-03-04T23:59:39.003Z,48.80
